createdAt,value
2019-05-12T00:00:39.059Z,7.18
2019-05-12T00:01:38.784Z,7.11
2019-05-12T00:02:39.480Z,7.11
2019-05-12T00:03:37.788Z,7.17
2019-05-12T00:04:38.455Z,7.20
2019-05-12T00:05:38.330Z,7.17
2019-05-12T00:06:38.654Z,7.14
2019-05-12T00:07:38.158Z,7.15
2019-05-12T00:08:38.112Z,7.17
2019-05-12T00:09:38.689Z,7.13
2019-05-12T00:10:38.524Z,7.03
2019-05-12T00:11:37.931Z,7.14
2019-05-12T00:12:38.544Z,7.10
2019-05-12T00:13:38.316Z,7.06
2019-05-12T00:14:38.120Z,7.06
2019-05-12T00:15:38.410Z,7.03
2019-05-12T00:16:38.424Z,7.13
2019-05-12T00:17:38.557Z,7.05
2019-05-12T00:18:37.810Z,7.03
2019-05-12T00:19:37.762Z,6.97
2019-05-12T00:20:38.489Z,6.99
2019-05-12T00:21:37.682Z,6.99
2019-05-12T00:22:38.121Z,6.93
2019-05-12T00:23:38.153Z,6.89
2019-05-12T00:24:38.223Z,6.87
2019-05-12T00:25:38.579Z,6.89
2019-05-12T00:26:38.232Z,6.88
2019-05-12T00:27:38.603Z,6.87
2019-05-12T00:28:37.685Z,6.87
2019-05-12T00:29:37.818Z,6.81
2019-05-12T00:30:38.539Z,6.78
2019-05-12T00:31:38.218Z,6.81
2019-05-12T00:32:38.440Z,6.87
2019-05-12T00:33:38.455Z,6.88
2019-05-12T00:34:38.451Z,6.81
2019-05-12T00:35:38.040Z,6.78
2019-05-12T00:36:37.928Z,6.82
2019-05-12T00:37:38.210Z,6.81
2019-05-12T00:38:38.062Z,6.78
2019-05-12T00:39:38.132Z,6.66
2019-05-12T00:40:38.825Z,6.72
2019-05-12T00:41:36.047Z,6.77
2019-05-12T00:42:38.168Z,6.75
2019-05-12T00:43:38.132Z,6.77
2019-05-12T00:44:36.010Z,6.77
2019-05-12T00:45:38.294Z,6.78
2019-05-12T00:46:38.359Z,6.79
2019-05-12T00:47:35.976Z,6.79
2019-05-12T00:48:37.594Z,6.77
2019-05-12T00:49:37.875Z,6.81
2019-05-12T00:50:37.998Z,6.82
2019-05-12T00:51:38.144Z,6.81
2019-05-12T00:52:37.970Z,6.77
2019-05-12T00:53:40.134Z,6.70
2019-05-12T00:54:37.595Z,6.67
2019-05-12T00:55:38.014Z,6.77
2019-05-12T00:56:35.893Z,6.69
2019-05-12T00:57:38.097Z,6.69
2019-05-12T00:58:38.121Z,6.70
2019-05-12T00:59:38.148Z,6.66
2019-05-12T01:00:35.832Z,6.66
2019-05-12T01:01:37.885Z,6.63
2019-05-12T01:02:37.975Z,6.60
2019-05-12T01:03:38.062Z,6.57
2019-05-12T01:04:38.017Z,6.56
2019-05-12T01:05:38.031Z,6.57
2019-05-12T01:06:38.475Z,6.54
2019-05-12T01:07:38.045Z,6.57
2019-05-12T01:08:35.748Z,6.57
2019-05-12T01:09:35.733Z,6.35
2019-05-12T01:10:35.728Z,6.42
2019-05-12T01:11:37.790Z,6.41
2019-05-12T01:12:37.647Z,6.41
2019-05-12T01:13:38.152Z,6.45
2019-05-12T01:14:35.683Z,6.36
2019-05-12T01:15:37.666Z,6.42
2019-05-12T01:16:38.324Z,6.41
2019-05-12T01:17:35.647Z,6.49
2019-05-12T01:18:35.635Z,6.44
2019-05-12T01:19:37.448Z,6.41
2019-05-12T01:20:35.611Z,6.42
2019-05-12T01:21:37.743Z,6.38
2019-05-12T01:22:38.027Z,6.46
2019-05-12T01:23:35.596Z,6.38
2019-05-12T01:24:35.567Z,6.38
2019-05-12T01:25:35.570Z,6.39
2019-05-12T01:26:35.546Z,6.31
2019-05-12T01:27:37.879Z,6.35
2019-05-12T01:28:35.550Z,6.49
2019-05-12T01:29:35.515Z,6.42
2019-05-12T01:30:35.500Z,6.39
2019-05-12T01:31:37.377Z,6.38
2019-05-12T01:32:38.075Z,6.49
2019-05-12T01:33:35.487Z,6.39
2019-05-12T01:34:35.457Z,6.42
2019-05-12T01:35:35.446Z,6.44
2019-05-12T01:36:37.935Z,6.41
2019-05-12T01:37:35.456Z,6.42
2019-05-12T01:38:37.785Z,6.38
2019-05-12T01:39:35.432Z,6.44
2019-05-12T01:40:35.389Z,6.44
2019-05-12T01:41:35.378Z,6.42
2019-05-12T01:42:37.989Z,6.48
2019-05-12T01:43:35.371Z,6.48
2019-05-12T01:44:35.382Z,6.49
2019-05-12T01:45:37.736Z,6.46
2019-05-12T01:46:38.129Z,6.39
2019-05-12T01:47:35.333Z,6.38
2019-05-12T01:48:37.642Z,6.38
2019-05-12T01:49:35.327Z,6.44
2019-05-12T01:50:35.299Z,6.39
2019-05-12T01:51:35.269Z,6.41
2019-05-12T01:52:35.282Z,6.38
2019-05-12T01:53:37.630Z,6.38
2019-05-12T01:54:35.241Z,6.39
2019-05-12T01:55:35.230Z,6.35
2019-05-12T01:56:35.230Z,6.36
2019-05-12T01:57:35.240Z,6.33
2019-05-12T01:58:35.250Z,6.28
2019-05-12T01:59:35.178Z,6.35
2019-05-12T02:00:35.175Z,6.38
2019-05-12T02:01:35.205Z,6.31
2019-05-12T02:02:35.155Z,6.38
2019-05-12T02:03:37.528Z,6.27
2019-05-12T02:04:35.137Z,6.42
2019-05-12T02:05:35.114Z,6.36
2019-05-12T02:06:35.127Z,6.48
2019-05-12T02:07:35.129Z,6.41
2019-05-12T02:08:35.087Z,6.38
2019-05-12T02:09:35.073Z,6.41
2019-05-12T02:10:35.075Z,6.45
2019-05-12T02:11:35.048Z,6.41
2019-05-12T02:12:35.041Z,6.39
2019-05-12T02:13:35.068Z,6.51
2019-05-12T02:14:35.018Z,6.48
2019-05-12T02:15:35.033Z,6.56
2019-05-12T02:16:34.995Z,6.56
2019-05-12T02:17:35.012Z,6.54
2019-05-12T02:18:34.968Z,6.51
2019-05-12T02:19:34.975Z,6.56
2019-05-12T02:20:34.961Z,6.48
2019-05-12T02:21:34.947Z,6.57
2019-05-12T02:22:34.927Z,6.52
2019-05-12T02:23:34.913Z,6.60
2019-05-12T02:24:34.932Z,6.66
2019-05-12T02:25:34.896Z,6.57
2019-05-12T02:26:34.902Z,6.64
2019-05-12T02:27:34.885Z,6.63
2019-05-12T02:28:34.869Z,6.66
2019-05-12T02:29:34.852Z,6.66
2019-05-12T02:30:34.850Z,6.70
2019-05-12T02:31:34.857Z,6.70
2019-05-12T02:32:47.244Z,6.63
2019-05-12T02:33:35.805Z,6.63
2019-05-12T02:34:35.119Z,6.56
2019-05-12T02:35:35.570Z,6.59
2019-05-12T02:36:34.770Z,6.57
2019-05-12T02:37:35.691Z,6.48
2019-05-12T02:38:34.754Z,6.48
2019-05-12T02:39:35.374Z,6.45
2019-05-12T02:40:35.238Z,6.54
2019-05-12T02:41:34.855Z,6.49
2019-05-12T02:42:35.011Z,6.39
2019-05-12T02:43:34.929Z,6.41
2019-05-12T02:44:34.834Z,6.41
2019-05-12T02:45:35.903Z,6.41
2019-05-12T02:46:35.088Z,6.45
2019-05-12T02:47:34.875Z,6.36
2019-05-12T02:48:35.599Z,6.35
2019-05-12T02:49:34.990Z,6.22
2019-05-12T02:50:35.673Z,6.24
2019-05-12T02:51:35.266Z,6.33
2019-05-12T02:52:34.861Z,6.28
2019-05-12T02:53:35.251Z,6.27
2019-05-12T02:54:50.765Z,6.19
2019-05-12T02:55:35.937Z,6.16
2019-05-12T02:56:35.706Z,6.14
2019-05-12T02:57:34.570Z,6.11
2019-05-12T02:58:34.903Z,6.07
2019-05-12T02:59:34.859Z,6.04
2019-05-12T03:00:35.419Z,6.11
2019-05-12T03:01:34.814Z,5.99
2019-05-12T03:02:34.828Z,6.02
2019-05-12T03:03:35.234Z,6.02
2019-05-12T03:04:35.011Z,5.99
2019-05-12T03:05:35.144Z,6.05
2019-05-12T03:06:36.111Z,6.07
2019-05-12T03:07:34.738Z,6.02
2019-05-12T03:08:35.065Z,6.05
2019-05-12T03:09:35.369Z,5.99
2019-05-12T03:10:35.411Z,6.09
2019-05-12T03:11:35.494Z,5.97
2019-05-12T03:12:34.614Z,5.93
2019-05-12T03:13:34.739Z,5.83
2019-05-12T03:14:40.259Z,5.80
2019-05-12T03:15:37.206Z,5.87
2019-05-12T03:16:35.183Z,5.84
2019-05-12T03:17:35.601Z,5.80
2019-05-12T03:18:34.957Z,5.79
2019-05-12T03:19:34.614Z,5.73
2019-05-12T03:20:35.354Z,5.68
2019-05-12T03:21:35.269Z,5.71
2019-05-12T03:22:35.234Z,5.69
2019-05-12T03:23:35.248Z,5.61
2019-05-12T03:24:34.351Z,5.73
2019-05-12T03:25:35.362Z,5.75
2019-05-12T03:26:34.783Z,5.71
2019-05-12T03:27:35.096Z,5.71
2019-05-12T03:28:35.544Z,5.71
2019-05-12T03:29:34.503Z,5.66
2019-05-12T03:30:38.427Z,5.62
2019-05-12T03:31:39.674Z,5.62
2019-05-12T03:32:37.865Z,5.57
2019-05-12T03:33:42.010Z,5.56
2019-05-12T03:34:38.114Z,5.61
2019-05-12T03:35:41.697Z,5.61
2019-05-12T03:36:42.275Z,5.51
2019-05-12T03:37:35.424Z,5.51
2019-05-12T03:38:35.952Z,5.50
2019-05-12T03:39:34.440Z,5.53
2019-05-12T03:40:37.599Z,5.46
2019-05-12T03:41:34.867Z,5.36
2019-05-12T03:42:35.464Z,5.39
2019-05-12T03:43:35.031Z,5.46
2019-05-12T03:44:35.206Z,5.41
2019-05-12T03:45:35.977Z,5.48
2019-05-12T03:46:35.247Z,5.38
2019-05-12T03:47:35.692Z,5.50
2019-05-12T03:48:34.931Z,5.53
2019-05-12T03:49:34.818Z,5.57
2019-05-12T03:50:35.401Z,5.57
2019-05-12T03:51:34.989Z,5.61
2019-05-12T03:52:34.905Z,5.61
2019-05-12T03:53:35.170Z,5.57
2019-05-12T03:54:34.939Z,5.75
2019-05-12T03:55:38.145Z,5.71
2019-05-12T03:56:35.277Z,5.73
2019-05-12T03:57:34.706Z,5.69
2019-05-12T03:58:34.799Z,5.71
2019-05-12T03:59:34.761Z,5.76
2019-05-12T04:00:35.852Z,5.68
2019-05-12T04:01:36.410Z,5.76
2019-05-12T04:02:34.208Z,5.79
2019-05-12T04:03:34.683Z,5.82
2019-05-12T04:04:34.763Z,5.69
2019-05-12T04:05:35.000Z,5.73
2019-05-12T04:06:34.573Z,5.76
2019-05-12T04:07:34.660Z,5.68
2019-05-12T04:08:34.674Z,5.72
2019-05-12T04:09:34.799Z,5.73
2019-05-12T04:10:35.330Z,5.73
2019-05-12T04:11:35.657Z,5.76
2019-05-12T04:12:34.818Z,5.80
2019-05-12T04:13:34.283Z,5.83
2019-05-12T04:14:34.597Z,5.84
2019-05-12T04:15:34.941Z,5.84
2019-05-12T04:16:36.315Z,5.87
2019-05-12T04:17:34.952Z,5.86
2019-05-12T04:18:34.839Z,5.83
2019-05-12T04:19:34.391Z,5.86
2019-05-12T04:20:35.642Z,5.83
2019-05-12T04:21:34.994Z,5.86
2019-05-12T04:22:35.116Z,5.87
2019-05-12T04:23:34.820Z,5.90
2019-05-12T04:24:35.880Z,5.93
2019-05-12T04:25:47.841Z,5.86
2019-05-12T04:26:36.253Z,5.83
2019-05-12T04:27:34.846Z,5.90
2019-05-12T04:28:35.122Z,5.86
2019-05-12T04:29:34.885Z,5.83
2019-05-12T04:30:35.706Z,5.82
2019-05-12T04:31:34.815Z,5.86
2019-05-12T04:32:35.720Z,5.82
2019-05-12T04:33:34.659Z,5.84
2019-05-12T04:34:34.271Z,5.89
2019-05-12T04:35:34.908Z,5.86
2019-05-12T04:36:35.539Z,5.82
2019-05-12T04:37:35.245Z,5.89
2019-05-12T04:38:35.554Z,5.83
2019-05-12T04:39:34.134Z,5.86
2019-05-12T04:40:36.044Z,5.90
2019-05-12T04:41:35.409Z,5.97
2019-05-12T04:42:34.939Z,5.93
2019-05-12T04:43:35.270Z,5.97
2019-05-12T04:44:34.696Z,5.94
2019-05-12T04:45:34.596Z,5.97
2019-05-12T04:46:34.667Z,6.04
2019-05-12T04:47:34.948Z,6.09
2019-05-12T04:48:35.795Z,6.02
2019-05-12T04:49:34.635Z,6.02
2019-05-12T04:50:35.377Z,6.12
2019-05-12T04:51:34.884Z,6.04
2019-05-12T04:52:35.186Z,6.07
2019-05-12T04:53:35.242Z,6.05
2019-05-12T04:54:35.555Z,6.07
2019-05-12T04:55:35.545Z,6.07
2019-05-12T04:56:35.831Z,6.07
2019-05-12T04:57:34.702Z,6.11
2019-05-12T04:58:35.027Z,6.07
2019-05-12T04:59:34.461Z,6.05
2019-05-12T05:00:34.809Z,6.14
2019-05-12T05:01:34.702Z,6.27
2019-05-12T05:02:36.447Z,6.31
2019-05-12T05:03:34.951Z,6.28
2019-05-12T05:04:34.689Z,6.31
2019-05-12T05:05:35.360Z,6.44
2019-05-12T05:06:34.238Z,6.38
2019-05-12T05:07:35.726Z,6.41
2019-05-12T05:08:34.821Z,6.56
2019-05-12T05:09:34.991Z,6.57
2019-05-12T05:10:34.238Z,6.56
2019-05-12T05:11:34.552Z,6.51
2019-05-12T05:12:34.476Z,6.56
2019-05-12T05:13:36.832Z,6.59
2019-05-12T05:14:34.192Z,6.51
2019-05-12T05:15:34.735Z,6.59
2019-05-12T05:16:34.615Z,6.52
2019-05-12T05:17:34.740Z,6.60
2019-05-12T05:18:34.445Z,6.62
2019-05-12T05:19:33.763Z,6.63
2019-05-12T05:20:34.442Z,6.62
2019-05-12T05:21:34.541Z,6.62
2019-05-12T05:22:33.392Z,6.51
2019-05-12T05:23:33.507Z,6.63
2019-05-12T05:24:33.905Z,6.51
2019-05-12T05:25:34.081Z,6.59
2019-05-12T05:26:37.029Z,6.59
2019-05-12T05:27:34.092Z,6.60
2019-05-12T05:28:33.987Z,6.60
2019-05-12T05:29:33.598Z,6.48
2019-05-12T05:30:33.967Z,6.49
2019-05-12T05:31:33.688Z,6.36
2019-05-12T05:32:33.928Z,6.36
2019-05-12T05:33:34.051Z,6.41
2019-05-12T05:34:34.290Z,6.35
2019-05-12T05:35:37.201Z,6.56
2019-05-12T05:36:34.599Z,6.59
2019-05-12T05:37:37.065Z,6.70
2019-05-12T05:38:34.300Z,6.77
2019-05-12T05:39:35.605Z,6.62
2019-05-12T05:40:35.721Z,6.63
2019-05-12T05:41:34.543Z,6.46
2019-05-12T05:42:35.440Z,6.41
2019-05-12T05:43:33.336Z,6.44
2019-05-12T05:44:36.339Z,6.42
2019-05-12T05:45:34.985Z,6.49
2019-05-12T05:46:33.691Z,6.88
2019-05-12T05:47:33.613Z,7.10
2019-05-12T05:48:35.118Z,7.24
2019-05-12T05:49:34.207Z,7.24
2019-05-12T05:50:34.292Z,7.29
2019-05-12T05:51:33.481Z,7.36
2019-05-12T05:52:37.123Z,7.35
2019-05-12T05:53:33.657Z,7.42
2019-05-12T05:54:35.951Z,7.47
2019-05-12T05:55:34.269Z,7.53
2019-05-12T05:56:42.124Z,7.57
2019-05-12T05:57:33.736Z,7.53
2019-05-12T05:58:33.936Z,7.50
2019-05-12T05:59:36.543Z,7.61
2019-05-12T06:00:35.270Z,7.58
2019-05-12T06:01:34.829Z,7.61
2019-05-12T06:02:39.702Z,7.58
2019-05-12T06:03:33.952Z,8.06
2019-05-12T06:04:34.203Z,8.27
2019-05-12T06:05:34.618Z,8.24
2019-05-12T06:06:34.205Z,8.15
2019-05-12T06:07:37.414Z,8.15
2019-05-12T06:08:33.844Z,8.08
2019-05-12T06:09:33.905Z,8.00
2019-05-12T06:10:36.205Z,7.98
2019-05-12T06:11:34.572Z,8.08
2019-05-12T06:12:33.450Z,8.19
2019-05-12T06:13:34.474Z,8.23
2019-05-12T06:14:34.244Z,8.36
2019-05-12T06:15:35.889Z,8.61
2019-05-12T06:16:34.064Z,8.95
2019-05-12T06:17:34.129Z,9.39
2019-05-12T06:18:33.477Z,9.94
2019-05-12T06:19:34.223Z,10.34
2019-05-12T06:20:37.424Z,10.57
2019-05-12T06:21:36.399Z,10.89
2019-05-12T06:22:34.321Z,10.99
2019-05-12T06:23:34.823Z,11.10
2019-05-12T06:24:33.519Z,11.18
2019-05-12T06:25:44.615Z,11.22
2019-05-12T06:26:35.670Z,10.97
2019-05-12T06:27:33.601Z,10.72
2019-05-12T06:28:39.432Z,10.68
2019-05-12T06:29:33.398Z,10.68
2019-05-12T06:30:37.555Z,10.78
2019-05-12T06:31:33.539Z,10.93
2019-05-12T06:32:33.643Z,11.17
2019-05-12T06:33:36.124Z,11.19
2019-05-12T06:34:34.181Z,11.59
2019-05-12T06:35:37.474Z,11.83
2019-05-12T06:36:33.971Z,11.73
2019-05-12T06:37:33.867Z,11.90
2019-05-12T06:38:38.737Z,11.81
2019-05-12T06:39:34.368Z,12.15
2019-05-12T06:40:40.400Z,11.99
2019-05-12T06:41:33.649Z,11.86
2019-05-12T06:42:34.131Z,11.77
2019-05-12T06:43:36.801Z,11.62
2019-05-12T06:44:33.534Z,11.35
2019-05-12T06:45:36.555Z,11.04
2019-05-12T06:46:34.252Z,10.81
2019-05-12T06:47:34.126Z,10.69
2019-05-12T06:48:33.237Z,10.56
2019-05-12T06:49:33.701Z,10.40
2019-05-12T06:50:37.083Z,10.23
2019-05-12T06:51:33.885Z,10.26
2019-05-12T06:52:33.771Z,10.23
2019-05-12T06:53:33.611Z,10.19
2019-05-12T06:54:33.545Z,10.17
2019-05-12T06:55:34.322Z,10.15
2019-05-12T06:56:34.217Z,10.16
2019-05-12T06:57:34.134Z,10.25
2019-05-12T06:58:34.377Z,10.37
2019-05-12T06:59:33.854Z,10.40
2019-05-12T07:00:32.636Z,10.40
2019-05-12T07:01:33.449Z,10.57
2019-05-12T07:02:36.539Z,10.59
2019-05-12T07:03:37.038Z,10.60
2019-05-12T07:04:33.948Z,10.68
2019-05-12T07:05:35.942Z,10.68
2019-05-12T07:06:33.885Z,10.86
2019-05-12T07:07:35.779Z,10.87
2019-05-12T07:08:38.306Z,10.90
2019-05-12T07:09:35.334Z,11.02
2019-05-12T07:10:42.944Z,11.07
2019-05-12T07:11:42.510Z,11.05
2019-05-12T07:12:39.645Z,10.94
2019-05-12T07:13:34.225Z,11.00
2019-05-12T07:14:31.693Z,10.96
2019-05-12T07:15:35.729Z,11.05
2019-05-12T07:16:34.114Z,11.05
2019-05-12T07:17:37.203Z,11.08
2019-05-12T07:18:36.967Z,11.18
2019-05-12T07:19:33.761Z,11.07
2019-05-12T07:20:37.141Z,11.15
2019-05-12T07:21:33.502Z,11.08
2019-05-12T07:22:43.837Z,11.14
2019-05-12T07:23:33.709Z,11.08
2019-05-12T07:24:34.047Z,11.07
2019-05-12T07:25:36.255Z,11.19
2019-05-12T07:26:33.931Z,11.25
2019-05-12T07:27:36.571Z,11.27
2019-05-12T07:28:36.291Z,11.33
2019-05-12T07:29:34.258Z,11.36
2019-05-12T07:30:34.481Z,11.43
2019-05-12T07:31:33.602Z,11.41
2019-05-12T07:32:34.221Z,11.32
2019-05-12T07:33:35.189Z,11.25
2019-05-12T07:34:33.403Z,11.29
2019-05-12T07:35:33.683Z,11.41
2019-05-12T07:36:33.394Z,11.30
2019-05-12T07:37:31.438Z,11.30
2019-05-12T07:38:31.435Z,11.35
2019-05-12T07:39:31.418Z,11.44
2019-05-12T07:40:34.728Z,11.47
2019-05-12T07:41:34.231Z,11.47
2019-05-12T07:42:39.026Z,11.51
2019-05-12T07:43:33.787Z,11.44
2019-05-12T07:44:39.505Z,11.40
2019-05-12T07:45:34.002Z,11.44
2019-05-12T07:46:31.360Z,11.32
2019-05-12T07:47:33.109Z,11.35
2019-05-12T07:48:33.368Z,11.30
2019-05-12T07:49:35.197Z,11.35
2019-05-12T07:50:34.583Z,11.45
2019-05-12T07:51:38.296Z,11.55
2019-05-12T07:52:33.747Z,11.65
2019-05-12T07:53:31.292Z,11.70
2019-05-12T07:54:37.295Z,11.78
2019-05-12T07:55:34.206Z,11.81
2019-05-12T07:56:33.503Z,12.02
2019-05-12T07:57:34.502Z,12.09
2019-05-12T07:58:33.312Z,12.06
2019-05-12T07:59:35.699Z,12.09
2019-05-12T08:00:33.907Z,12.06
2019-05-12T08:01:38.127Z,12.15
2019-05-12T08:02:35.535Z,12.15
2019-05-12T08:03:31.146Z,12.09
2019-05-12T08:04:39.611Z,12.12
2019-05-12T08:05:33.814Z,12.12
2019-05-12T08:06:34.719Z,12.22
2019-05-12T08:07:33.748Z,12.37
2019-05-12T08:08:31.095Z,12.47
2019-05-12T08:09:33.155Z,12.43
2019-05-12T08:10:34.151Z,12.46
2019-05-12T08:11:36.760Z,12.39
2019-05-12T08:12:33.972Z,12.22
2019-05-12T08:13:36.340Z,12.22
2019-05-12T08:14:33.175Z,12.28
2019-05-12T08:15:33.718Z,12.21
2019-05-12T08:16:36.228Z,12.04
2019-05-12T08:17:33.669Z,12.06
2019-05-12T08:18:38.991Z,11.97
2019-05-12T08:19:33.780Z,11.87
2019-05-12T08:20:30.957Z,11.75
2019-05-12T08:21:37.005Z,11.69
2019-05-12T08:22:31.957Z,11.70
2019-05-12T08:23:30.965Z,11.59
2019-05-12T08:24:36.859Z,11.50
2019-05-12T08:25:34.143Z,11.50
2019-05-12T08:26:33.331Z,11.75
2019-05-12T08:27:30.902Z,11.97
2019-05-12T08:28:35.861Z,11.99
2019-05-12T08:29:34.140Z,11.97
2019-05-12T08:30:30.848Z,12.03
2019-05-12T08:31:33.262Z,12.00
2019-05-12T08:32:33.813Z,11.99
2019-05-12T08:33:30.844Z,11.86
2019-05-12T08:34:30.822Z,11.88
2019-05-12T08:35:35.076Z,11.86
2019-05-12T08:36:33.476Z,11.88
2019-05-12T08:37:30.792Z,11.80
2019-05-12T08:38:30.785Z,11.75
2019-05-12T08:39:30.746Z,11.69
2019-05-12T08:40:30.753Z,11.70
2019-05-12T08:41:30.724Z,11.62
2019-05-12T08:42:30.723Z,11.65
2019-05-12T08:43:30.700Z,11.62
2019-05-12T08:44:33.892Z,11.66
2019-05-12T08:45:37.012Z,11.60
2019-05-12T08:46:31.681Z,11.54
2019-05-12T08:47:35.482Z,11.60
2019-05-12T08:48:34.142Z,11.47
2019-05-12T08:49:34.111Z,11.45
2019-05-12T08:50:33.798Z,11.35
2019-05-12T08:51:30.624Z,11.27
2019-05-12T08:52:36.292Z,11.35
2019-05-12T08:53:33.665Z,11.33
2019-05-12T08:54:30.586Z,11.44
2019-05-12T08:55:31.453Z,11.50
2019-05-12T08:56:30.592Z,11.52
2019-05-12T08:57:34.932Z,11.65
2019-05-12T08:58:46.543Z,11.88
2019-05-12T08:59:31.537Z,12.12
2019-05-12T09:00:30.513Z,12.43
2019-05-12T09:01:30.937Z,12.78
2019-05-12T09:02:30.638Z,13.25
2019-05-12T09:03:30.715Z,13.44
2019-05-12T09:04:30.486Z,13.74
2019-05-12T09:05:34.637Z,13.95
2019-05-12T09:06:31.457Z,14.15
2019-05-12T09:07:34.986Z,14.23
2019-05-12T09:08:37.978Z,14.35
2019-05-12T09:09:33.621Z,14.48
2019-05-12T09:10:30.414Z,14.62
2019-05-12T09:11:30.397Z,14.69
2019-05-12T09:12:30.381Z,14.32
2019-05-12T09:13:30.368Z,14.12
2019-05-12T09:14:35.547Z,14.32
2019-05-12T09:15:31.344Z,14.45
2019-05-12T09:16:30.336Z,14.65
2019-05-12T09:17:30.322Z,14.88
2019-05-12T09:18:35.115Z,15.00
2019-05-12T09:19:33.222Z,15.22
2019-05-12T09:20:30.292Z,15.19
2019-05-12T09:21:33.873Z,15.28
2019-05-12T09:22:30.308Z,15.35
2019-05-12T09:23:32.738Z,15.22
2019-05-12T09:24:31.243Z,15.22
2019-05-12T09:25:30.250Z,15.19
2019-05-12T09:26:30.248Z,15.21
2019-05-12T09:27:30.229Z,15.18
2019-05-12T09:28:42.834Z,15.25
2019-05-12T09:29:31.190Z,15.40
2019-05-12T09:30:30.180Z,15.52
2019-05-12T09:31:30.189Z,15.75
2019-05-12T09:32:30.156Z,15.75
2019-05-12T09:33:34.103Z,15.75
2019-05-12T09:34:30.159Z,15.68
2019-05-12T09:35:34.846Z,15.67
2019-05-12T09:36:33.606Z,15.92
2019-05-12T09:37:30.870Z,15.88
2019-05-12T09:38:33.124Z,15.72
2019-05-12T09:39:35.369Z,15.44
2019-05-12T09:40:31.082Z,15.21
2019-05-12T09:41:34.336Z,15.21
2019-05-12T09:42:33.001Z,15.37
2019-05-12T09:43:30.066Z,15.44
2019-05-12T09:44:30.502Z,15.49
2019-05-12T09:45:30.025Z,15.33
2019-05-12T09:46:34.283Z,15.24
2019-05-12T09:47:30.991Z,15.15
2019-05-12T09:48:29.991Z,15.29
2019-05-12T09:49:36.751Z,15.37
2019-05-12T09:50:30.963Z,15.58
2019-05-12T09:51:35.234Z,15.70
2019-05-12T09:52:32.938Z,15.47
2019-05-12T09:53:29.932Z,15.44
2019-05-12T09:54:35.589Z,15.22
2019-05-12T09:55:30.901Z,15.04
2019-05-12T09:56:29.891Z,14.73
2019-05-12T09:57:34.724Z,14.69
2019-05-12T09:58:30.880Z,14.63
2019-05-12T09:59:29.882Z,14.47
2019-05-12T10:00:30.315Z,14.32
2019-05-12T10:01:35.232Z,14.20
2019-05-12T10:02:30.845Z,14.11
2019-05-12T10:03:31.010Z,14.04
2019-05-12T10:04:32.955Z,13.93
2019-05-12T10:05:30.552Z,13.89
2019-05-12T10:06:30.782Z,13.89
2019-05-12T10:07:29.774Z,13.85
2019-05-12T10:08:35.587Z,13.68
2019-05-12T10:09:30.793Z,13.70
2019-05-12T10:10:38.169Z,13.65
2019-05-12T10:11:30.725Z,13.85
2019-05-12T10:12:30.172Z,14.12
2019-05-12T10:13:30.339Z,14.55
2019-05-12T10:14:29.710Z,14.84
2019-05-12T10:15:29.698Z,15.09
2019-05-12T10:16:29.697Z,15.39
2019-05-12T10:17:30.263Z,15.67
2019-05-12T10:18:29.647Z,15.40
2019-05-12T10:19:29.652Z,15.21
2019-05-12T10:20:35.156Z,14.97
2019-05-12T10:21:30.633Z,14.86
2019-05-12T10:22:29.995Z,14.73
2019-05-12T10:23:30.595Z,14.59
2019-05-12T10:24:32.760Z,14.47
2019-05-12T10:25:30.740Z,14.60
2019-05-12T10:26:29.598Z,14.70
2019-05-12T10:27:31.935Z,14.63
2019-05-12T10:28:29.567Z,14.59
2019-05-12T10:29:31.005Z,14.69
2019-05-12T10:30:29.518Z,14.94
2019-05-12T10:31:34.542Z,15.19
2019-05-12T10:32:30.523Z,15.09
2019-05-12T10:33:29.532Z,15.31
2019-05-12T10:34:34.832Z,15.59
2019-05-12T10:35:30.515Z,15.77
2019-05-12T10:36:29.454Z,16.01
2019-05-12T10:37:29.628Z,16.42
2019-05-12T10:38:29.445Z,16.39
2019-05-12T10:39:29.431Z,16.15
2019-05-12T10:40:29.447Z,15.91
2019-05-12T10:41:29.398Z,15.80
2019-05-12T10:42:29.384Z,15.79
2019-05-12T10:43:29.384Z,15.54
2019-05-12T10:44:37.702Z,15.43
2019-05-12T10:45:30.367Z,15.58
2019-05-12T10:46:29.417Z,15.72
2019-05-12T10:47:29.332Z,15.72
2019-05-12T10:48:29.319Z,15.62
2019-05-12T10:49:29.330Z,15.61
2019-05-12T10:50:29.313Z,15.44
2019-05-12T10:51:29.300Z,15.55
2019-05-12T10:52:33.933Z,15.54
2019-05-12T10:53:30.263Z,15.73
2019-05-12T10:54:29.256Z,15.94
2019-05-12T10:55:29.242Z,16.02
2019-05-12T10:56:29.247Z,15.95
2019-05-12T10:57:29.218Z,16.08
2019-05-12T10:58:29.226Z,16.24
2019-05-12T10:59:33.163Z,16.32
2019-05-12T11:00:30.187Z,16.53
2019-05-12T11:01:29.211Z,16.60
2019-05-12T11:02:30.660Z,17.01
2019-05-12T11:03:29.176Z,17.05
2019-05-12T11:04:36.014Z,16.94
2019-05-12T11:05:30.129Z,16.78
2019-05-12T11:06:29.145Z,16.81
2019-05-12T11:07:30.007Z,16.97
2019-05-12T11:08:29.116Z,17.08
2019-05-12T11:09:31.670Z,17.29
2019-05-12T11:10:29.105Z,17.54
2019-05-12T11:11:32.831Z,17.63
2019-05-12T11:12:30.051Z,17.39
2019-05-12T11:13:29.042Z,16.93
2019-05-12T11:14:30.579Z,16.51
2019-05-12T11:15:29.032Z,16.28
2019-05-12T11:16:30.758Z,16.15
2019-05-12T11:17:29.039Z,16.01
2019-05-12T11:18:30.554Z,15.97
2019-05-12T11:19:28.980Z,16.24
2019-05-12T11:20:28.986Z,16.36
2019-05-12T11:21:28.976Z,16.60
2019-05-12T11:22:28.957Z,16.79
2019-05-12T11:23:28.973Z,16.65
2019-05-12T11:24:28.921Z,16.16
2019-05-12T11:25:28.910Z,15.95
2019-05-12T11:26:28.897Z,15.91
2019-05-12T11:27:28.901Z,15.64
2019-05-12T11:28:28.875Z,15.65
2019-05-12T11:29:41.711Z,15.54
2019-05-12T11:30:29.854Z,15.47
2019-05-12T11:31:28.872Z,15.51
2019-05-12T11:32:34.019Z,15.37
2019-05-12T11:33:29.840Z,15.18
2019-05-12T11:34:28.808Z,15.27
2019-05-12T11:35:36.360Z,15.03
2019-05-12T11:36:28.932Z,14.97
2019-05-12T11:37:29.154Z,14.94
2019-05-12T11:38:28.795Z,14.88
2019-05-12T11:39:30.608Z,14.82
2019-05-12T11:40:29.741Z,14.68
2019-05-12T11:41:28.778Z,14.63
2019-05-12T11:42:28.724Z,14.66
2019-05-12T11:43:29.820Z,14.60
2019-05-12T11:44:28.707Z,14.58
2019-05-12T11:45:28.690Z,14.54
2019-05-12T11:46:28.693Z,14.45
2019-05-12T11:47:28.692Z,14.54
2019-05-12T11:48:28.651Z,14.47
2019-05-12T11:49:28.642Z,14.36
2019-05-12T11:50:28.642Z,14.35
2019-05-12T11:51:30.490Z,14.28
2019-05-12T11:52:28.624Z,14.23
2019-05-12T11:53:31.156Z,14.03
2019-05-12T11:54:28.593Z,13.93
2019-05-12T11:55:31.560Z,13.99
2019-05-12T11:56:28.579Z,14.05
2019-05-12T11:57:30.314Z,14.10
2019-05-12T11:58:28.563Z,14.04
2019-05-12T11:59:28.566Z,14.20
2019-05-12T12:00:28.522Z,14.30
2019-05-12T12:01:28.511Z,14.32
2019-05-12T12:02:30.403Z,14.33
2019-05-12T12:03:28.494Z,14.54
2019-05-12T12:04:28.482Z,14.60
2019-05-12T12:05:28.501Z,14.65
2019-05-12T12:06:28.456Z,14.62
2019-05-12T12:07:28.445Z,14.65
2019-05-12T12:08:33.657Z,14.69
2019-05-12T12:09:29.439Z,14.73
2019-05-12T12:10:29.288Z,14.77
2019-05-12T12:11:29.418Z,14.81
2019-05-12T12:12:28.388Z,14.77
2019-05-12T12:13:30.142Z,14.69
2019-05-12T12:14:28.654Z,14.77
2019-05-12T12:15:30.351Z,14.70
2019-05-12T12:16:28.349Z,14.82
2019-05-12T12:17:30.910Z,15.09
2019-05-12T12:18:28.324Z,15.33
2019-05-12T12:19:37.790Z,15.64
2019-05-12T12:20:29.306Z,15.98
2019-05-12T12:21:28.309Z,16.15
2019-05-12T12:22:29.836Z,16.36
2019-05-12T12:23:28.281Z,16.43
2019-05-12T12:24:31.418Z,16.68
2019-05-12T12:25:28.271Z,16.81
2019-05-12T12:26:30.369Z,16.84
2019-05-12T12:27:28.225Z,16.94
2019-05-12T12:28:28.211Z,16.83
2019-05-12T12:29:28.227Z,16.86
2019-05-12T12:30:28.190Z,16.78
2019-05-12T12:31:29.712Z,16.83
2019-05-12T12:32:29.168Z,16.99
2019-05-12T12:33:30.958Z,17.02
2019-05-12T12:34:30.355Z,17.31
2019-05-12T12:35:28.148Z,17.33
2019-05-12T12:36:28.138Z,17.24
2019-05-12T12:37:28.117Z,17.05
2019-05-12T12:38:28.130Z,17.02
2019-05-12T12:39:28.094Z,16.94
2019-05-12T12:40:28.884Z,16.84
2019-05-12T12:41:28.115Z,16.65
2019-05-12T12:42:30.395Z,16.26
2019-05-12T12:43:29.060Z,15.98
2019-05-12T12:44:28.036Z,15.90
2019-05-12T12:45:30.308Z,15.75
2019-05-12T12:46:29.038Z,15.68
2019-05-12T12:47:28.026Z,15.59
2019-05-12T12:48:29.726Z,15.47
2019-05-12T12:49:29.483Z,15.19
2019-05-12T12:50:30.504Z,15.03
2019-05-12T12:51:27.962Z,15.00
2019-05-12T12:52:27.962Z,14.81
2019-05-12T12:53:27.967Z,14.59
2019-05-12T12:54:27.929Z,14.50
2019-05-12T12:55:27.921Z,14.44
2019-05-12T12:56:30.117Z,14.35
2019-05-12T12:57:27.904Z,14.37
2019-05-12T12:58:31.408Z,14.35
2019-05-12T12:59:28.890Z,14.18
2019-05-12T13:00:32.320Z,14.18
2019-05-12T13:01:32.573Z,14.07
2019-05-12T13:02:27.845Z,14.11
2019-05-12T13:03:29.771Z,14.07
2019-05-12T13:04:28.909Z,14.05